X  Fechar Metar - Info de Aeroporto     LYNI Nis Airport
Temperatura
20°C Temperatura
8°C Ptº Orvalho
46% Humidade



Vento
3 M/S
6 MPH
10 KM/H
5 NÓS



320°
NO
Condições Atuais

Limpo Limpo
Pressão 1017.92 (hPa) - 30.06 (inHg)
Visibilidade 6.2 (milha) - 10 (km)
Aeroporto
Código-Aeropoto LYNI

Localização: Nis Airport
Distância: 63 (km)

Metar:
LYNI 021600Z 32005KT CAVOK 20/08 Q1018 NOSIG

Hora: 02-10-2022 18:00 CEST